Time;durP1;ratioP1;P1;durP2;ratioP2;P2;SDS_P1;SDS_P2;PMS_P1;PMS_P2;Temp;Humidity;BMP_temperature;BMP_pressure;BME280_temperature;BME280_humidity;BME280_pressure;Samples;Min_cycle;Max_cycle;Signal;HPM_P1;HPM_P2
2023/10/06 00:00:40;;;;;;;5.88;3.47;;;15.00;99.90;;;;;;5057513;28;20037;-61
2023/10/06 00:03:10;;;;;;;7.47;4.23;;;15.00;99.90;;;;;;5056761;28;20089;-61
2023/10/06 00:05:36;;;;;;;5.10;3.42;;;15.10;99.90;;;;;;5056293;28;20120;-61
2023/10/06 00:08:21;;;;;;;9.98;4.85;;;15.10;99.90;;;;;;5059425;28;20032;-61
2023/10/06 00:10:51;;;;;;;4.80;3.70;;;15.10;99.90;;;;;;5056811;28;20037;-61
2023/10/06 00:13:31;;;;;;;3.92;3.03;;;15.10;99.90;;;;;;5059108;28;20028;-61
2023/10/06 00:16:00;;;;;;;6.45;3.85;;;15.10;99.90;;;;;;5055695;28;20059;-61
2023/10/06 00:18:27;;;;;;;7.28;5.63;;;15.10;99.90;;;;;;5057965;28;20105;-61
2023/10/06 00:21:03;;;;;;;8.35;5.28;;;15.10;99.90;;;;;;5057872;28;20555;-61
2023/10/06 00:23:30;;;;;;;9.43;6.30;;;15.10;99.90;;;;;;5058008;28;20036;-61
2023/10/06 00:25:56;;;;;;;11.73;6.72;;;15.20;99.90;;;;;;5056632;28;20809;-61
2023/10/06 00:28:26;;;;;;;10.10;6.40;;;15.20;99.90;;;;;;5058818;28;20139;-61
2023/10/06 00:30:57;;;;;;;9.68;6.25;;;15.20;99.90;;;;;;5062111;28;20484;-61
2023/10/06 00:33:32;;;;;;;13.32;7.55;;;15.30;99.90;;;;;;5058376;28;20034;-61
2023/10/06 00:35:59;;;;;;;11.73;7.10;;;15.30;99.90;;;;;;5060788;28;20025;-61
2023/10/06 00:38:25;;;;;;;14.27;8.02;;;15.30;99.90;;;;;;5058308;28;20098;-61
2023/10/06 00:40:51;;;;;;;11.23;8.18;;;15.30;99.90;;;;;;5056341;28;20083;-61
2023/10/06 00:43:39;;;;;;;11.13;7.45;;;15.40;99.90;;;;;;5059149;28;20480;-61
2023/10/06 00:46:07;;;;;;;13.35;9.18;;;15.40;99.90;;;;;;5057156;28;20032;-61
2023/10/06 00:48:44;;;;;;;12.57;8.52;;;15.40;99.90;;;;;;5058438;28;20536;-61
2023/10/06 00:51:19;;;;;;;11.30;7.80;;;15.40;99.90;;;;;;5062268;28;20034;-61
2023/10/06 00:53:46;;;;;;;11.95;7.72;;;15.40;99.90;;;;;;5061351;28;20033;-61
2023/10/06 00:56:15;;;;;;;13.50;8.35;;;15.40;99.90;;;;;;5059080;28;20032;-61
2023/10/06 00:58:42;;;;;;;11.43;8.02;;;15.50;99.90;;;;;;5063013;28;20083;-61
2023/10/06 01:01:12;;;;;;;12.77;7.70;;;15.50;99.90;;;;;;5065104;28;20111;-61
2023/10/06 01:03:38;;;;;;;13.38;8.60;;;15.50;99.90;;;;;;5064214;28;20035;-61
2023/10/06 01:06:17;;;;;;;12.48;7.88;;;15.50;99.90;;;;;;5062034;28;20051;-61
2023/10/06 01:08:52;;;;;;;13.98;8.15;;;15.60;99.90;;;;;;5063952;28;20033;-61
2023/10/06 01:11:19;;;;;;;14.77;8.10;;;15.60;99.90;;;;;;5059173;28;20056;-61
2023/10/06 01:13:54;;;;;;;12.07;8.45;;;15.60;99.90;;;;;;5059181;28;20029;-61
2023/10/06 01:16:36;;;;;;;11.07;7.32;;;15.60;99.90;;;;;;5060828;28;20060;-61
2023/10/06 01:19:15;;;;;;;18.40;10.00;;;15.60;99.90;;;;;;5059262;28;20031;-61
2023/10/06 01:21:46;;;;;;;13.45;8.55;;;15.60;99.90;;;;;;5058868;28;20037;-61
2023/10/06 01:24:13;;;;;;;16.48;9.73;;;15.70;99.90;;;;;;5061815;28;20032;-61
2023/10/06 01:26:42;;;;;;;16.13;8.75;;;15.70;99.90;;;;;;5058557;28;20056;-61
2023/10/06 01:29:15;;;;;;;12.30;8.05;;;15.70;99.90;;;;;;5060473;28;20218;-61
2023/10/06 01:31:42;;;;;;;11.52;7.88;;;15.70;99.90;;;;;;5061522;28;20033;-61
2023/10/06 01:34:12;;;;;;;15.80;8.10;;;15.70;99.90;;;;;;5065257;28;20047;-62
2023/10/06 01:36:38;;;;;;;12.32;8.23;;;15.70;99.90;;;;;;5061946;28;20040;-61
2023/10/06 01:39:15;;;;;;;12.23;8.45;;;15.70;99.90;;;;;;5061966;28;20028;-61
2023/10/06 01:41:41;;;;;;;16.73;8.57;;;15.70;99.90;;;;;;5063419;28;20040;-61
2023/10/06 01:44:12;;;;;;;15.88;10.00;;;15.70;99.90;;;;;;5061520;28;20067;-61
2023/10/06 01:46:43;;;;;;;15.02;10.10;;;15.80;99.90;;;;;;5057359;28;20063;-61
2023/10/06 01:49:14;;;;;;;12.25;9.05;;;15.80;99.90;;;;;;5062669;28;20836;-61
2023/10/06 01:51:40;;;;;;;16.73;9.98;;;15.70;99.90;;;;;;5058807;28;20481;-61
2023/10/06 01:54:13;;;;;;;14.20;10.13;;;15.70;99.90;;;;;;5060161;28;20020;-61
2023/10/06 01:56:45;;;;;;;14.48;9.90;;;15.70;99.90;;;;;;5059139;28;20511;-61
2023/10/06 01:59:14;;;;;;;16.08;10.63;;;15.70;99.90;;;;;;5060309;28;20020;-62
2023/10/06 02:01:41;;;;;;;19.60;12.02;;;15.70;99.90;;;;;;5057616;28;20061;-61
2023/10/06 02:04:14;;;;;;;15.90;10.75;;;15.70;99.90;;;;;;5065096;28;20028;-61
2023/10/06 02:06:48;;;;;;;15.60;10.32;;;15.80;99.90;;;;;;5058176;28;20118;-62
2023/10/06 02:09:18;;;;;;;14.50;9.50;;;15.80;99.90;;;;;;5060980;28;20028;-61
2023/10/06 02:11:45;;;;;;;13.07;9.30;;;15.70;99.90;;;;;;5057057;28;20032;-61
2023/10/06 02:14:18;;;;;;;16.92;10.65;;;15.70;99.90;;;;;;5060002;28;20044;-61
2023/10/06 02:16:48;;;;;;;13.23;9.55;;;15.70;99.90;;;;;;5059168;28;20029;-61
2023/10/06 02:19:17;;;;;;;12.60;9.27;;;15.70;99.90;;;;;;5064465;28;20499;-61
2023/10/06 02:21:48;;;;;;;10.63;7.97;;;15.70;99.90;;;;;;5059120;28;20033;-61
2023/10/06 02:24:18;;;;;;;14.80;9.88;;;15.70;99.90;;;;;;5058655;28;20035;-61
2023/10/06 02:26:57;;;;;;;16.52;10.02;;;15.70;99.90;;;;;;5063035;28;20037;-61
2023/10/06 02:29:23;;;;;;;14.05;10.20;;;15.70;99.90;;;;;;5058114;28;20451;-61
2023/10/06 02:31:50;;;;;;;14.98;11.07;;;15.80;99.90;;;;;;5059749;28;20716;-61
2023/10/06 02:34:26;;;;;;;23.00;11.88;;;15.80;99.90;;;;;;5056697;28;20047;-61
2023/10/06 02:36:54;;;;;;;13.93;10.52;;;15.80;99.90;;;;;;5062384;28;20562;-61
2023/10/06 02:39:20;;;;;;;15.82;11.00;;;15.80;99.90;;;;;;5058471;28;20028;-61
2023/10/06 02:41:47;;;;;;;18.23;11.70;;;15.80;99.90;;;;;;5059549;28;20592;-61
2023/10/06 02:44:22;;;;;;;16.25;11.68;;;15.80;99.90;;;;;;5056659;28;20059;-61
2023/10/06 02:46:50;;;;;;;13.03;9.77;;;15.80;99.90;;;;;;5058519;28;20033;-62
2023/10/06 02:49:24;;;;;;;16.15;10.82;;;15.80;99.90;;;;;;5057950;28;20021;-61
2023/10/06 02:51:50;;;;;;;13.00;9.30;;;15.80;99.90;;;;;;5062634;28;20043;-61
2023/10/06 02:56:46;;;;;;;15.80;11.05;;;15.80;99.90;;;;;;5059690;28;20796;-61
2023/10/06 02:59:21;;;;;;;14.57;10.50;;;15.80;99.90;;;;;;5058010;28;20056;-62
2023/10/06 03:01:52;;;;;;;18.38;11.90;;;15.80;99.90;;;;;;5058085;28;20068;-61
2023/10/06 03:04:21;;;;;;;16.35;10.55;;;15.80;99.90;;;;;;5057928;28;20040;-61
2023/10/06 03:06:55;;;;;;;16.25;11.10;;;15.80;99.90;;;;;;5058617;28;20299;-61
2023/10/06 03:09:27;;;;;;;15.23;9.98;;;15.70;99.90;;;;;;5059318;28;20028;-61
2023/10/06 03:11:52;;;;;;;15.80;11.35;;;15.70;99.90;;;;;;5075410;28;20032;-61
2023/10/06 03:14:24;;;;;;;13.07;9.15;;;15.70;99.90;;;;;;5056101;28;20704;-61
2023/10/06 03:16:51;;;;;;;21.30;12.15;;;15.70;99.90;;;;;;5075582;28;20145;-61
2023/10/06 03:19:24;;;;;;;16.88;11.32;;;15.70;99.90;;;;;;5056375;28;20052;-61
2023/10/06 03:21:56;;;;;;;15.48;10.57;;;15.70;99.90;;;;;;5062455;28;20403;-61
2023/10/06 03:24:30;;;;;;;12.32;9.77;;;15.70;99.90;;;;;;5056345;28;20083;-61
2023/10/06 03:26:58;;;;;;;13.98;9.48;;;15.70;99.90;;;;;;5057068;28;20024;-61
2023/10/06 03:32:13;;;;;;;9.77;7.45;;;15.60;99.90;;;;;;5062062;28;20028;-61
2023/10/06 03:34:43;;;;;;;10.23;7.65;;;15.60;99.90;;;;;;5056194;28;20028;-61
2023/10/06 03:37:10;;;;;;;9.35;7.82;;;15.60;99.90;;;;;;5062858;28;20533;-62
2023/10/06 03:39:50;;;;;;;10.88;7.85;;;15.60;99.90;;;;;;5054546;28;20029;-61
2023/10/06 03:42:20;;;;;;;9.40;7.60;;;15.50;99.90;;;;;;5061925;28;20487;-61
2023/10/06 03:45:04;;;;;;;14.07;7.85;;;15.50;99.90;;;;;;5055515;28;20044;-61
2023/10/06 03:47:30;;;;;;;10.70;8.13;;;15.40;99.90;;;;;;5058670;28;20500;-61
2023/10/06 03:49:56;;;;;;;10.68;8.38;;;15.40;99.90;;;;;;5063250;28;20036;-61
2023/10/06 03:52:22;;;;;;;12.60;8.93;;;15.40;99.90;;;;;;5061069;28;20047;-61
2023/10/06 03:54:48;;;;;;;9.40;7.03;;;15.30;99.90;;;;;;5054545;28;20063;-61
2023/10/06 03:57:15;;;;;;;11.35;9.02;;;15.20;99.90;;;;;;5060444;28;20412;-61
2023/10/06 03:59:44;;;;;;;13.80;8.95;;;15.20;99.90;;;;;;5055198;28;20140;-61
2023/10/06 04:02:10;;;;;;;12.80;9.07;;;15.10;99.90;;;;;;5058470;28;20028;-61
2023/10/06 04:04:39;;;;;;;12.77;8.32;;;15.10;99.90;;;;;;5054460;28;20119;-61
2023/10/06 04:07:06;;;;;;;12.60;8.82;;;15.00;99.90;;;;;;5061466;28;20430;-61
2023/10/06 04:09:33;;;;;;;14.07;9.65;;;15.00;99.90;;;;;;5056837;28;20029;-61
2023/10/06 04:12:01;;;;;;;10.05;7.32;;;14.90;99.90;;;;;;5060963;28;20111;-61
2023/10/06 04:14:32;;;;;;;10.52;7.28;;;14.90;99.90;;;;;;5053786;28;20040;-62
2023/10/06 04:17:01;;;;;;;11.45;8.90;;;14.80;99.90;;;;;;5058466;28;20028;-61
2023/10/06 04:19:26;;;;;;;11.32;8.45;;;14.80;99.90;;;;;;5054645;28;20021;-61
2023/10/06 04:21:53;;;;;;;11.65;9.02;;;14.80;99.90;;;;;;5061147;28;20435;-61
2023/10/06 04:24:19;;;;;;;12.50;8.63;;;14.70;99.90;;;;;;5055387;28;20090;-61
2023/10/06 04:26:45;;;;;;;14.68;8.85;;;14.70;99.90;;;;;;5060318;28;20040;-61
2023/10/06 04:29:13;;;;;;;10.27;7.90;;;14.70;99.90;;;;;;5056744;28;20040;-61
2023/10/06 04:31:38;;;;;;;14.35;10.18;;;14.60;99.90;;;;;;5063458;28;20035;-61
2023/10/06 04:34:04;;;;;;;13.88;8.43;;;14.60;99.90;;;;;;5061738;28;20480;-61
2023/10/06 04:36:31;;;;;;;12.27;8.18;;;14.60;99.90;;;;;;5062062;28;20543;-61
2023/10/06 04:38:57;;;;;;;13.75;9.75;;;14.50;99.90;;;;;;5062410;28;20051;-61
2023/10/06 04:41:23;;;;;;;14.95;9.55;;;14.50;99.90;;;;;;5062239;28;20036;-61
2023/10/06 04:43:51;;;;;;;13.80;9.50;;;14.50;99.90;;;;;;5061109;28;20045;-61
2023/10/06 04:46:16;;;;;;;11.95;8.52;;;14.50;99.90;;;;;;5064337;28;20035;-61
2023/10/06 04:48:42;;;;;;;16.33;10.40;;;14.50;99.90;;;;;;5060794;28;20828;-61
2023/10/06 04:51:13;;;;;;;17.02;9.48;;;14.50;99.90;;;;;;5063417;28;20024;-61
2023/10/06 04:53:39;;;;;;;14.68;9.75;;;14.50;99.90;;;;;;5060538;28;20123;-61
2023/10/06 04:56:08;;;;;;;13.57;8.75;;;14.50;99.90;;;;;;5060026;28;20040;-61
2023/10/06 04:58:38;;;;;;;12.88;10.00;;;14.50;99.90;;;;;;5059403;28;20115;-61
2023/10/06 05:01:07;;;;;;;15.65;9.52;;;14.40;99.90;;;;;;5060499;28;20016;-61
2023/10/06 05:03:45;;;;;;;13.18;9.15;;;14.40;99.90;;;;;;5060506;28;20029;-61
2023/10/06 05:06:21;;;;;;;13.23;8.73;;;14.40;99.90;;;;;;5061181;28;20111;-61
2023/10/06 05:08:47;;;;;;;17.70;9.90;;;14.40;99.90;;;;;;5061105;28;20024;-61
2023/10/06 05:11:14;;;;;;;13.13;9.27;;;14.40;99.90;;;;;;5062467;28;20040;-61
2023/10/06 05:13:40;;;;;;;13.90;9.00;;;14.40;99.90;;;;;;5066662;28;20478;-66
2023/10/06 05:16:06;;;;;;;14.23;10.25;;;14.40;99.90;;;;;;5067773;28;20111;-65
2023/10/06 05:18:33;;;;;;;15.85;9.13;;;14.40;99.90;;;;;;5067399;28;20801;-66
2023/10/06 05:20:59;;;;;;;13.52;8.52;;;14.40;99.90;;;;;;5067488;28;20021;-66
2023/10/06 05:23:26;;;;;;;13.15;9.55;;;14.40;99.90;;;;;;5067121;28;20507;-66
2023/10/06 05:25:54;;;;;;;14.60;9.30;;;14.50;99.90;;;;;;5067295;28;20154;-65
2023/10/06 05:28:20;;;;;;;21.92;11.30;;;14.50;99.90;;;;;;5066810;28;20041;-66
2023/10/06 05:30:46;;;;;;;20.98;11.38;;;14.60;99.90;;;;;;5067168;28;20036;-66
2023/10/06 05:33:14;;;;;;;18.92;11.90;;;14.60;99.90;;;;;;5066902;28;20047;-66
2023/10/06 05:35:40;;;;;;;17.70;10.50;;;14.70;99.90;;;;;;5067186;28;20036;-67
2023/10/06 05:38:08;;;;;;;18.13;11.13;;;14.70;99.90;;;;;;5066932;28;20029;-66
2023/10/06 05:40:37;;;;;;;20.58;11.45;;;14.70;99.90;;;;;;5066656;28;20032;-66
2023/10/06 05:43:04;;;;;;;16.75;10.57;;;14.70;99.90;;;;;;5065825;28;20484;-66
2023/10/06 05:45:30;;;;;;;18.27;10.77;;;14.70;99.90;;;;;;5066628;28;20044;-66
2023/10/06 05:47:58;;;;;;;22.30;12.07;;;14.70;99.90;;;;;;5066623;28;20040;-66
2023/10/06 05:50:28;;;;;;;19.23;11.05;;;14.70;99.90;;;;;;5066623;28;20523;-66
2023/10/06 05:52:57;;;;;;;17.20;11.30;;;14.70;99.90;;;;;;5066350;28;20035;-66
2023/10/06 05:55:35;;;;;;;15.25;9.70;;;14.70;99.90;;;;;;5065109;28;20028;-66
2023/10/06 05:58:19;;;;;;;13.15;8.30;;;14.70;99.90;;;;;;5065940;28;20032;-66
2023/10/06 06:00:52;;;;;;;15.50;10.23;;;14.60;99.90;;;;;;5066407;28;20037;-66
2023/10/06 06:03:20;;;;;;;16.42;10.80;;;14.60;99.90;;;;;;5061354;28;20499;-66
2023/10/06 06:05:54;;;;;;;14.18;9.55;;;14.70;99.90;;;;;;5064559;28;20040;-66
2023/10/06 06:08:20;;;;;;;16.63;11.00;;;14.70;99.90;;;;;;5064791;28;20077;-65
2023/10/06 06:10:46;;;;;;;12.18;9.05;;;14.70;99.90;;;;;;5065058;28;20036;-65
2023/10/06 06:13:18;;;;;;;19.85;10.73;;;14.70;99.90;;;;;;5066107;28;20057;-66
2023/10/06 06:15:44;;;;;;;18.92;11.40;;;14.80;99.90;;;;;;5065943;28;20127;-66
2023/10/06 06:18:13;;;;;;;20.08;11.40;;;14.80;99.90;;;;;;5066334;28;20107;-66
2023/10/06 06:20:41;;;;;;;18.67;11.65;;;14.90;99.90;;;;;;5066182;28;20047;-66
2023/10/06 06:23:12;;;;;;;13.68;10.23;;;14.90;99.90;;;;;;5066006;28;20084;-66
2023/10/06 06:25:38;;;;;;;14.55;10.98;;;15.00;99.90;;;;;;5065452;28;20039;-66
2023/10/06 06:28:05;;;;;;;19.27;10.82;;;15.10;99.90;;;;;;5066157;28;20438;-66
2023/10/06 06:30:34;;;;;;;19.95;10.75;;;15.20;99.90;;;;;;5065840;28;20054;-65
2023/10/06 06:33:04;;;;;;;15.95;10.35;;;15.20;99.90;;;;;;5065664;28;20078;-66
2023/10/06 06:35:32;;;;;;;17.33;9.88;;;15.20;99.90;;;;;;5065727;28;20035;-66
2023/10/06 06:38:18;;;;;;;20.70;11.18;;;15.20;99.90;;;;;;5058796;28;20044;-66
2023/10/06 06:40:44;;;;;;;18.00;10.82;;;15.30;99.90;;;;;;5065916;28;20029;-66
2023/10/06 06:43:10;;;;;;;21.27;10.57;;;15.30;99.90;;;;;;5065698;28;20453;-65
2023/10/06 06:45:42;;;;;;;18.13;10.02;;;15.40;99.90;;;;;;5065807;28;20047;-66
2023/10/06 06:48:16;;;;;;;17.38;10.20;;;15.40;99.90;;;;;;5059460;28;20090;-66
2023/10/06 06:50:43;;;;;;;16.95;11.23;;;15.40;99.90;;;;;;5065504;28;20036;-65
2023/10/06 06:53:12;;;;;;;17.45;10.50;;;15.40;99.90;;;;;;5064816;28;20106;-66
2023/10/06 06:55:38;;;;;;;15.27;10.10;;;15.30;99.90;;;;;;5065464;28;20043;-66
2023/10/06 06:58:10;;;;;;;16.58;10.20;;;15.40;99.90;;;;;;5065393;28;20480;-66
2023/10/06 07:00:39;;;;;;;15.38;9.63;;;15.40;99.90;;;;;;5065407;28;20036;-66
2023/10/06 07:03:06;;;;;;;18.42;10.80;;;15.50;99.90;;;;;;5065133;28;20056;-66
2023/10/06 07:05:34;;;;;;;17.80;10.50;;;15.60;99.90;;;;;;5061845;28;20033;-66
2023/10/06 07:08:03;;;;;;;12.10;8.95;;;15.60;99.90;;;;;;5065029;28;20036;-66
2023/10/06 07:10:29;;;;;;;14.93;9.30;;;15.60;99.90;;;;;;5064994;28;20047;-66
2023/10/06 07:12:58;;;;;;;18.17;9.32;;;15.60;99.90;;;;;;5056811;28;20044;-66
2023/10/06 07:15:27;;;;;;;14.50;9.73;;;15.60;99.90;;;;;;5065235;28;20020;-66
2023/10/06 07:17:55;;;;;;;14.77;9.18;;;15.60;99.90;;;;;;5065012;28;20020;-66
2023/10/06 07:20:27;;;;;;;11.52;7.85;;;15.70;99.90;;;;;;5065104;28;20369;-66
2023/10/06 07:22:56;;;;;;;15.70;9.10;;;15.70;99.90;;;;;;5065265;28;20593;-67
2023/10/06 07:25:26;;;;;;;15.50;9.07;;;15.80;99.90;;;;;;5065469;28;20038;-66
2023/10/06 07:27:57;;;;;;;13.27;8.13;;;15.90;99.90;;;;;;5065046;28;20053;-66
2023/10/06 07:30:27;;;;;;;17.40;9.15;;;16.00;99.90;;;;;;5064978;28;20536;-66
2023/10/06 07:32:56;;;;;;;12.57;8.50;;;16.00;99.90;;;;;;5064374;28;20062;-66
2023/10/06 07:38:10;;;;;;;16.27;8.38;;;16.10;99.90;;;;;;5058490;28;20048;-66
2023/10/06 07:40:38;;;;;;;13.98;9.00;;;16.00;99.90;;;;;;5064966;28;20037;-66
2023/10/06 07:43:05;;;;;;;15.38;8.10;;;16.10;99.90;;;;;;5064479;28;20548;-66
2023/10/06 07:45:32;;;;;;;14.48;8.32;;;16.10;99.90;;;;;;5065090;28;20072;-66
2023/10/06 07:47:58;;;;;;;13.20;7.53;;;16.20;99.90;;;;;;5064859;28;20070;-66
2023/10/06 07:50:28;;;;;;;18.13;9.23;;;16.30;99.90;;;;;;5064830;28;20131;-66
2023/10/06 07:52:55;;;;;;;11.35;8.13;;;16.40;99.90;;;;;;5064428;28;20149;-66
2023/10/06 07:55:23;;;;;;;14.73;7.55;;;16.30;99.90;;;;;;5063617;28;20029;-66
2023/10/06 07:57:50;;;;;;;18.25;7.68;;;16.30;99.90;;;;;;5063360;28;20052;-66
2023/10/06 08:00:32;;;;;;;12.73;7.50;;;16.40;99.90;;;;;;5064295;28;20028;-66
2023/10/06 08:03:00;;;;;;;10.93;6.53;;;16.40;99.90;;;;;;5056137;28;20404;-66
2023/10/06 08:05:27;;;;;;;12.77;7.03;;;16.40;99.90;;;;;;5065505;28;20028;-66
2023/10/06 08:07:52;;;;;;;9.50;6.53;;;16.60;99.90;;;;;;5064238;28;20047;-66
2023/10/06 08:10:19;;;;;;;16.70;6.28;;;16.60;99.90;;;;;;5069133;28;20044;-66
2023/10/06 08:12:45;;;;;;;11.68;6.15;;;16.60;99.90;;;;;;5068297;28;20112;-65
2023/10/06 08:15:16;;;;;;;12.00;7.22;;;16.60;99.90;;;;;;5068281;28;20940;-66
2023/10/06 08:17:58;;;;;;;11.13;6.45;;;16.60;99.90;;;;;;5068386;28;20032;-66
2023/10/06 08:20:27;;;;;;;10.07;6.03;;;16.50;99.90;;;;;;5068568;28;20108;-66
2023/10/06 08:22:53;;;;;;;11.80;6.40;;;16.50;99.90;;;;;;5068182;28;20112;-66
2023/10/06 08:25:19;;;;;;;11.13;6.45;;;16.70;99.90;;;;;;5067577;28;20377;-66
2023/10/06 08:27:48;;;;;;;13.70;6.55;;;16.60;99.90;;;;;;5066695;28;20114;-66
2023/10/06 08:30:16;;;;;;;10.60;6.30;;;16.60;99.90;;;;;;5068326;28;20041;-66
2023/10/06 08:32:54;;;;;;;12.00;5.60;;;16.70;99.90;;;;;;5068122;28;20064;-66
2023/10/06 08:35:21;;;;;;;11.35;5.93;;;16.80;99.90;;;;;;5067928;28;20797;-66
2023/10/06 08:37:49;;;;;;;9.40;5.45;;;16.80;99.90;;;;;;5068174;28;20106;-66
2023/10/06 08:40:16;;;;;;;9.65;5.25;;;16.70;99.90;;;;;;5067797;28;20110;-66
2023/10/06 08:42:53;;;;;;;9.38;5.50;;;16.70;99.90;;;;;;5067683;28;20033;-65
2023/10/06 08:45:22;;;;;;;8.30;5.05;;;16.60;99.90;;;;;;5066435;28;20074;-65
2023/10/06 08:48:01;;;;;;;8.88;5.25;;;16.60;99.90;;;;;;5067691;28;20090;-66
2023/10/06 08:50:31;;;;;;;7.78;5.05;;;16.70;99.90;;;;;;5067683;28;20033;-66
2023/10/06 08:52:58;;;;;;;11.90;4.53;;;16.70;99.90;;;;;;5061516;28;20046;-66
2023/10/06 08:55:28;;;;;;;10.65;4.90;;;16.80;99.90;;;;;;5067836;28;20449;-66
2023/10/06 08:57:55;;;;;;;7.50;4.28;;;16.80;99.90;;;;;;5052419;28;20039;-65
2023/10/06 09:00:24;;;;;;;8.80;4.00;;;16.90;99.90;;;;;;5066130;28;20853;-66
2023/10/06 09:02:51;;;;;;;8.70;5.00;;;16.90;99.90;;;;;;5067302;28;20032;-66
2023/10/06 09:05:23;;;;;;;9.65;4.28;;;16.80;99.90;;;;;;5067130;28;20143;-66
2023/10/06 09:08:25;;;;;;;8.85;3.85;;;16.70;99.90;;;;;;5067690;28;20041;-66
2023/10/06 09:10:51;;;;;;;8.13;3.83;;;16.80;99.90;;;;;;4985494;28;20088;-66
2023/10/06 09:13:19;;;;;;;10.45;4.00;;;16.90;99.90;;;;;;5050321;28;20048;-66
2023/10/06 09:16:08;;;;;;;5.20;3.38;;;16.90;99.90;;;;;;5066728;28;20063;-67
2023/10/06 09:18:35;;;;;;;7.90;3.60;;;16.90;99.90;;;;;;5067047;28;20090;-66
2023/10/06 09:21:15;;;;;;;8.43;3.58;;;16.80;99.90;;;;;;5066465;28;20048;-66
2023/10/06 09:23:42;;;;;;;9.95;3.45;;;17.00;99.90;;;;;;5066507;28;20032;-67
2023/10/06 09:26:12;;;;;;;8.60;3.13;;;17.20;99.90;;;;;;5066865;28;20718;-67
2023/10/06 09:28:52;;;;;;;9.52;3.15;;;17.40;99.90;;;;;;5066429;28;20581;-67
2023/10/06 09:31:36;;;;;;;6.22;2.85;;;17.50;99.90;;;;;;5065497;28;20028;-67
2023/10/06 09:34:07;;;;;;;6.68;3.03;;;17.80;99.90;;;;;;5066244;28;20033;-67
2023/10/06 09:36:33;;;;;;;6.95;2.78;;;18.00;99.90;;;;;;5059971;28;20539;-67
2023/10/06 09:39:03;;;;;;;6.15;2.67;;;18.20;99.90;;;;;;5063211;28;20097;-67
2023/10/06 09:41:32;;;;;;;6.88;2.67;;;18.20;99.90;;;;;;5061591;28;20036;-68
2023/10/06 09:44:03;;;;;;;3.70;2.40;;;18.30;99.90;;;;;;5057467;28;20545;-67
2023/10/06 09:46:34;;;;;;;5.90;2.75;;;18.10;99.90;;;;;;5060788;28;20029;-67
2023/10/06 09:49:05;;;;;;;3.17;2.47;;;18.10;99.90;;;;;;5060091;28;20036;-67
2023/10/06 09:51:33;;;;;;;5.43;2.30;;;18.20;99.90;;;;;;5058275;28;20029;-67
2023/10/06 09:53:59;;;;;;;5.63;2.38;;;18.40;99.90;;;;;;5057853;28;20427;-69
2023/10/06 09:56:27;;;;;;;4.93;2.00;;;18.50;98.70;;;;;;5064025;28;20485;-67
2023/10/06 09:58:54;;;;;;;6.32;2.15;;;18.50;98.90;;;;;;5059389;28;20111;-67
2023/10/06 10:01:25;;;;;;;5.65;2.30;;;18.70;98.60;;;;;;5065037;28;20078;-67
2023/10/06 10:03:56;;;;;;;4.80;2.38;;;18.80;98.50;;;;;;5065800;28;20028;-67
2023/10/06 10:06:23;;;;;;;8.30;2.50;;;18.90;97.60;;;;;;5066142;28;20067;-67
2023/10/06 10:08:51;;;;;;;3.50;1.75;;;18.70;96.30;;;;;;5062340;28;20090;-67
2023/10/06 10:11:28;;;;;;;6.68;2.63;;;18.60;96.80;;;;;;5063871;28;20032;-68
2023/10/06 10:14:31;;;;;;;5.13;1.98;;;18.40;96.30;;;;;;5066143;28;20472;-67
2023/10/06 10:17:27;;;;;;;6.05;1.88;;;18.20;97.00;;;;;;5057938;28;20028;-67
2023/10/06 10:19:55;;;;;;;5.00;2.13;;;18.20;97.40;;;;;;5060766;28;20028;-67
2023/10/06 10:22:21;;;;;;;5.95;1.63;;;18.30;96.90;;;;;;5064559;28;20082;-67
2023/10/06 10:24:47;;;;;;;4.35;1.67;;;18.30;96.60;;;;;;5063500;28;20477;-67
2023/10/06 10:27:16;;;;;;;6.03;2.00;;;18.50;96.50;;;;;;5063943;28;20032;-67
2023/10/06 10:29:42;;;;;;;5.28;1.95;;;18.60;95.90;;;;;;5064542;28;20032;-68
2023/10/06 10:32:24;;;;;;;6.13;1.83;;;18.60;95.70;;;;;;5064656;28;20029;-67
2023/10/06 10:35:12;;;;;;;5.78;1.80;;;18.60;95.50;;;;;;5064616;28;20028;-67
2023/10/06 10:38:14;;;;;;;8.90;2.28;;;18.70;95.60;;;;;;5061063;28;20032;-67
2023/10/06 10:40:48;;;;;;;6.32;2.20;;;18.70;95.90;;;;;;5000693;28;20113;-68
2023/10/06 10:43:14;;;;;;;3.38;2.03;;;18.80;95.90;;;;;;5053710;28;20458;-68
2023/10/06 10:45:44;;;;;;;5.70;1.60;;;18.90;95.70;;;;;;5062324;28;20044;-67
2023/10/06 10:48:14;;;;;;;5.13;1.80;;;18.90;95.30;;;;;;5064081;28;20040;-65
2023/10/06 10:50:52;;;;;;;6.20;1.70;;;18.90;95.50;;;;;;5058766;28;20757;-68
2023/10/06 10:53:20;;;;;;;3.40;1.65;;;18.90;95.00;;;;;;5058698;28;20032;-68
2023/10/06 10:55:50;;;;;;;6.75;2.05;;;18.90;95.30;;;;;;5063834;28;20387;-68
2023/10/06 10:58:44;;;;;;;4.70;1.50;;;18.70;95.20;;;;;;5060797;28;20119;-68
2023/10/06 11:01:32;;;;;;;3.28;1.25;;;18.70;95.80;;;;;;5061508;28;20572;-68
2023/10/06 11:06:58;;;;;;;5.70;1.88;;;18.80;95.40;;;;;;5052500;28;20036;-68
2023/10/06 11:09:29;;;;;;;6.03;1.65;;;18.70;94.80;;;;;;5063616;28;20051;-68
2023/10/06 11:12:05;;;;;;;3.10;1.70;;;18.80;95.50;;;;;;5062626;28;20028;-68
2023/10/06 11:14:37;;;;;;;5.63;1.60;;;18.80;95.20;;;;;;5062215;28;20025;-68
2023/10/06 11:17:05;;;;;;;5.78;2.03;;;19.00;95.60;;;;;;5058139;28;20039;-68
2023/10/06 11:19:32;;;;;;;5.03;1.60;;;19.10;94.70;;;;;;5053074;28;20037;-67
2023/10/06 11:22:14;;;;;;;1.83;1.27;;;19.10;94.90;;;;;;5059649;28;20114;-69
2023/10/06 11:24:41;;;;;;;2.85;1.60;;;19.30;94.90;;;;;;5060477;28;20036;-68
2023/10/06 11:27:22;;;;;;;3.65;1.95;;;19.50;94.50;;;;;;5062065;28;20024;-68
2023/10/06 11:29:51;;;;;;;4.35;1.65;;;19.30;93.60;;;;;;5060586;28;20028;-68
2023/10/06 11:32:18;;;;;;;6.70;1.75;;;19.20;94.10;;;;;;5062602;28;20032;-68
2023/10/06 11:34:51;;;;;;;5.18;1.42;;;19.20;94.20;;;;;;5062798;28;20024;-68
2023/10/06 11:37:18;;;;;;;9.32;2.20;;;19.40;93.90;;;;;;5062357;28;20016;-68
2023/10/06 11:39:57;;;;;;;2.78;1.40;;;19.30;93.40;;;;;;5062615;28;20135;-68
2023/10/06 11:42:26;;;;;;;7.13;1.58;;;19.40;93.20;;;;;;5063214;28;20389;-67
2023/10/06 11:44:53;;;;;;;3.53;1.38;;;19.40;93.20;;;;;;5062478;28;20059;-67
2023/10/06 11:47:22;;;;;;;3.92;1.48;;;19.30;93.50;;;;;;5062589;28;20024;-68
2023/10/06 11:49:58;;;;;;;3.45;1.50;;;19.30;93.20;;;;;;5058246;28;20108;-68
2023/10/06 11:52:25;;;;;;;4.68;1.90;;;19.20;93.90;;;;;;5058269;28;20036;-68
2023/10/06 11:54:56;;;;;;;8.32;1.50;;;19.20;93.50;;;;;;5059729;28;20044;-68
2023/10/06 11:57:47;;;;;;;3.70;1.40;;;19.10;93.90;;;;;;5062636;28;20388;-68
2023/10/06 12:00:17;;;;;;;3.85;1.60;;;19.30;93.70;;;;;;5056563;28;20416;-68
2023/10/06 12:02:49;;;;;;;4.20;1.45;;;19.30;94.00;;;;;;5062683;28;20029;-68
2023/10/06 12:05:25;;;;;;;4.68;1.67;;;19.40;94.10;;;;;;5063175;28;20089;-68
2023/10/06 12:07:51;;;;;;;4.90;1.30;;;19.40;93.60;;;;;;5062874;28;20449;-68
2023/10/06 12:10:19;;;;;;;7.35;1.50;;;19.40;94.00;;;;;;5059446;28;20041;-68
2023/10/06 12:12:46;;;;;;;3.95;1.52;;;19.30;93.40;;;;;;5063140;28;20763;-68
2023/10/06 12:15:14;;;;;;;5.60;1.38;;;19.20;94.00;;;;;;5062962;28;20035;-68
2023/10/06 12:17:41;;;;;;;4.65;1.73;;;19.20;94.00;;;;;;5058784;28;20070;-68
2023/10/06 12:20:13;;;;;;;4.63;1.55;;;19.30;94.10;;;;;;5059538;28;20032;-68
2023/10/06 12:22:43;;;;;;;5.90;2.10;;;19.30;93.50;;;;;;5063501;28;20166;-68
2023/10/06 12:25:16;;;;;;;5.95;1.67;;;19.40;94.10;;;;;;5059645;28;20110;-68
2023/10/06 12:27:43;;;;;;;6.22;1.35;;;19.40;93.70;;;;;;5063083;28;20039;-68
2023/10/06 12:30:14;;;;;;;2.58;1.33;;;19.50;93.90;;;;;;5060567;28;20039;-67
2023/10/06 12:32:45;;;;;;;6.18;1.70;;;19.50;93.60;;;;;;5063578;28;20049;-68
2023/10/06 12:35:12;;;;;;;4.82;1.40;;;19.60;94.00;;;;;;5063856;28;20024;-69
2023/10/06 12:37:41;;;;;;;6.45;1.73;;;19.60;93.20;;;;;;5064365;28;20531;-68
2023/10/06 12:40:13;;;;;;;6.80;1.70;;;19.70;93.90;;;;;;5061983;28;20029;-67
2023/10/06 12:42:42;;;;;;;6.05;1.63;;;19.80;92.90;;;;;;5063323;28;20162;-67
2023/10/06 12:45:20;;;;;;;4.68;2.00;;;19.60;93.00;;;;;;5059533;28;20163;-68
2023/10/06 12:47:47;;;;;;;6.65;1.38;;;19.50;93.50;;;;;;5058496;28;20036;-68
2023/10/06 12:50:19;;;;;;;7.75;1.80;;;19.50;93.50;;;;;;5057980;28;20043;-68
2023/10/06 12:52:51;;;;;;;5.97;1.80;;;19.50;93.70;;;;;;5065446;28;20036;-69
2023/10/06 12:55:22;;;;;;;4.82;1.55;;;19.50;93.50;;;;;;5057350;28;20027;-68
2023/10/06 12:57:53;;;;;;;6.43;1.50;;;19.30;93.30;;;;;;5065244;28;20040;-68
2023/10/06 13:00:19;;;;;;;6.75;1.50;;;19.10;93.70;;;;;;5066824;28;20024;-67
2023/10/06 13:02:48;;;;;;;3.35;1.70;;;19.20;94.20;;;;;;5065354;28;20075;-68
2023/10/06 13:05:18;;;;;;;3.83;1.60;;;19.20;94.30;;;;;;5058836;28;20642;-68